Time;durP1;ratioP1;P1;durP2;ratioP2;P2;SDS_P1;SDS_P2;PMS_P1;PMS_P2;Temp;Humidity;BMP_temperature;BMP_pressure;BME280_temperature;BME280_humidity;BME280_pressure;Samples;Min_cycle;Max_cycle;Signal;HPM_P1;HPM_P2
2022/06/05 07:35:41;;;;;;;10.50;5.15;;;19.80;99.90;;;;;;5131093;27;20119;-74
2022/06/05 07:38:07;;;;;;;8.13;4.53;;;19.90;99.90;;;;;;5130771;28;20091;-74
2022/06/05 07:40:38;;;;;;;10.73;4.93;;;19.90;99.90;;;;;;5130667;28;20080;-79
2022/06/05 07:43:03;;;;;;;7.80;4.75;;;19.90;99.90;;;;;;5130673;28;20053;-74
2022/06/05 07:45:29;;;;;;;11.40;4.50;;;20.00;99.90;;;;;;5115950;28;20046;-74
2022/06/05 07:47:55;;;;;;;13.90;5.15;;;19.90;99.90;;;;;;5127790;27;20051;-77
2022/06/05 07:50:20;;;;;;;12.35;4.30;;;20.00;99.90;;;;;;5129251;28;20052;-76
2022/06/05 07:55:30;;;;;;;12.68;4.85;;;20.00;99.90;;;;;;5128962;28;20053;-77
2022/06/05 07:57:55;;;;;;;12.23;4.00;;;20.00;99.90;;;;;;5128939;28;20016;-77
2022/06/05 08:00:23;;;;;;;7.22;3.97;;;20.00;99.90;;;;;;5110343;28;20012;-78
2022/06/05 08:02:49;;;;;;;7.38;3.58;;;20.00;99.90;;;;;;5129219;28;20020;-77
2022/06/05 08:05:15;;;;;;;12.50;4.20;;;19.90;99.90;;;;;;5128472;28;20069;-76
2022/06/05 08:07:40;;;;;;;9.70;4.07;;;19.90;99.90;;;;;;5128657;28;20027;-75
2022/06/05 08:10:07;;;;;;;10.63;4.43;;;19.90;99.90;;;;;;5128725;28;20107;-76
2022/06/05 08:12:34;;;;;;;11.35;4.10;;;19.70;99.90;;;;;;5128325;28;20111;-76
2022/06/05 08:15:08;;;;;;;8.18;4.03;;;19.70;99.90;;;;;;5128549;28;20023;-77
2022/06/05 08:17:35;;;;;;;6.70;3.67;;;19.80;99.90;;;;;;5128506;28;20027;-76
2022/06/05 08:20:01;;;;;;;12.68;4.03;;;19.90;99.90;;;;;;5128686;28;20528;-76
2022/06/05 08:22:27;;;;;;;10.00;4.03;;;20.00;99.90;;;;;;5127008;28;20096;-75
2022/06/05 08:24:53;;;;;;;12.45;4.63;;;19.90;99.90;;;;;;5128764;28;20025;-76
2022/06/05 08:27:24;;;;;;;8.60;3.55;;;20.00;99.90;;;;;;5128175;28;20040;-76
2022/06/05 08:29:51;;;;;;;;;;;20.00;99.90;;;;;;5129443;28;20024;-75
2022/06/05 08:32:17;;;;;;;7.38;3.63;;;20.00;99.90;;;;;;5128825;28;20336;-76
2022/06/05 08:34:44;;;;;;;7.20;3.47;;;19.80;99.90;;;;;;5128649;27;20104;-76
2022/06/05 08:43:08;;;;;;;10.57;3.78;;;19.90;99.90;;;;;;5128698;28;20139;-76
2022/06/05 08:45:48;;;;;;;8.70;3.72;;;20.00;99.90;;;;;;5123075;27;20028;-76
2022/06/05 08:48:20;;;;;;;8.95;4.20;;;20.00;99.90;;;;;;5116175;28;20402;-78
2022/06/05 08:50:48;;;;;;;9.43;3.53;;;20.00;99.90;;;;;;5116066;28;20034;-76
2022/06/05 08:53:29;;;;;;;11.20;3.80;;;19.90;99.90;;;;;;5107221;27;20035;-76
2022/06/05 08:55:57;;;;;;;15.60;4.05;;;19.80;99.90;;;;;;5115826;28;20103;-76
2022/06/05 08:58:43;;;;;;;9.18;3.53;;;20.00;99.90;;;;;;5105407;27;20039;-76
2022/06/05 09:01:21;;;;;;;8.00;3.60;;;20.20;99.90;;;;;;5101560;28;20047;-76
2022/06/05 09:04:19;;;;;;;14.25;4.00;;;20.30;99.90;;;;;;5103228;28;20032;-76
2022/06/05 09:06:48;;;;;;;10.10;3.67;;;20.40;99.90;;;;;;5103068;28;20058;-73
2022/06/05 09:09:22;;;;;;;9.00;3.55;;;20.40;99.90;;;;;;5114734;28;20019;-72
2022/06/05 09:12:18;;;;;;;9.18;3.50;;;20.40;99.90;;;;;;5103646;27;20031;-76
2022/06/05 09:14:47;;;;;;;7.15;3.47;;;20.40;99.90;;;;;;5096626;28;20551;-76
2022/06/05 09:17:16;;;;;;;9.60;3.70;;;20.50;99.90;;;;;;5103110;28;20497;-74
2022/06/05 09:19:44;;;;;;;11.65;3.95;;;20.60;99.90;;;;;;5114046;28;20020;-75
2022/06/05 09:22:18;;;;;;;14.10;3.65;;;20.70;99.90;;;;;;5115067;28;20027;-76
2022/06/05 09:25:28;;;;;;;11.43;3.35;;;20.70;99.90;;;;;;5113567;28;20484;-75
2022/06/05 09:28:12;;;;;;;9.27;3.70;;;20.80;99.90;;;;;;5108917;28;20016;-75
2022/06/05 09:31:10;;;;;;;7.22;3.03;;;20.80;99.90;;;;;;5106815;28;20119;-73
2022/06/05 09:33:39;;;;;;;10.88;3.13;;;20.70;99.90;;;;;;5058739;28;20041;-73
2022/06/05 09:36:11;;;;;;;7.95;3.42;;;20.80;99.90;;;;;;5058535;28;20046;-74
2022/06/05 09:38:57;;;;;;;;;;;20.80;99.90;;;;;;5069240;28;20028;-73
2022/06/05 09:41:34;;;;;;;8.85;3.60;;;20.70;99.90;;;;;;5072194;28;19905;-73
2022/06/05 09:44:21;;;;;;;7.82;3.08;;;20.80;99.90;;;;;;5055194;28;20404;-73
2022/06/05 09:46:47;;;;;;;6.85;3.63;;;20.90;99.90;;;;;;5069536;28;20111;-73
2022/06/05 09:49:50;;;;;;;7.53;3.35;;;21.00;99.90;;;;;;5059603;28;20033;-73
2022/06/05 09:52:22;;;;;;;10.07;3.42;;;21.20;99.90;;;;;;4975510;28;20585;-73
2022/06/05 09:55:09;;;;;;;8.60;3.55;;;21.20;99.90;;;;;;4991648;28;20054;-73
2022/06/05 10:00:45;;;;;;;9.82;3.38;;;21.80;99.90;;;;;;4972828;28;20110;-73
2022/06/05 10:03:14;;;;;;;9.73;3.30;;;22.00;99.90;;;;;;4973091;28;20073;-73
2022/06/05 10:05:45;;;;;;;6.47;2.90;;;22.10;99.90;;;;;;4977319;28;20093;-74
2022/06/05 10:08:23;;;;;;;6.65;2.70;;;22.20;99.90;;;;;;4991935;28;20073;-75
2022/06/05 18:29:22;;;;;;;7.38;2.83;;;24.00;90.30;;;;;;5280258;23;20336;-75
2022/06/05 18:31:48;;;;;;;4.50;2.00;;;23.80;90.70;;;;;;4936811;29;20050;-74
2022/06/05 18:34:35;;;;;;;7.15;2.85;;;23.70;91.00;;;;;;4935840;29;20108;-75
2022/06/05 18:40:21;;;;;;;6.78;2.58;;;23.50;91.80;;;;;;4936151;29;20071;-74
2022/06/05 18:42:58;;;;;;;5.57;2.75;;;23.40;91.10;;;;;;4936021;29;20399;-74
2022/06/05 18:45:27;;;;;;;5.03;2.45;;;23.40;91.50;;;;;;4931511;29;20038;-74
2022/06/05 18:47:56;;;;;;;6.25;2.63;;;23.30;91.60;;;;;;4925086;29;20030;-74
2022/06/05 18:50:25;;;;;;;9.45;2.45;;;23.20;91.60;;;;;;4934820;29;20039;-74
2022/06/05 18:52:52;;;;;;;7.72;2.90;;;23.20;91.60;;;;;;4919760;29;20059;-74
2022/06/05 18:55:21;;;;;;;5.68;2.53;;;23.10;91.50;;;;;;4915287;29;20035;-74
2022/06/05 18:57:47;;;;;;;5.13;2.80;;;23.00;91.90;;;;;;4933969;29;20062;-74
2022/06/05 19:00:29;;;;;;;4.85;2.42;;;22.90;92.10;;;;;;4935860;29;20024;-74
2022/06/05 19:03:00;;;;;;;5.25;2.40;;;22.90;92.10;;;;;;4935388;29;20024;-74
2022/06/05 19:05:50;;;;;;;4.90;2.67;;;22.90;92.40;;;;;;4915960;29;20488;-74
2022/06/05 19:08:27;;;;;;;7.80;2.80;;;22.80;92.30;;;;;;4916610;29;20396;-74
2022/06/05 19:11:04;;;;;;;8.70;2.80;;;22.70;92.30;;;;;;4916766;29;20036;-74
2022/06/05 19:13:48;;;;;;;8.82;2.47;;;22.70;92.70;;;;;;4916464;29;20039;-75
2022/06/05 19:16:27;;;;;;;6.03;2.60;;;22.60;92.60;;;;;;4916330;29;20048;-74
2022/06/05 19:19:21;;;;;;;11.43;2.72;;;22.50;93.20;;;;;;4922927;29;20063;-74
2022/06/05 19:21:50;;;;;;;4.55;2.55;;;22.50;92.90;;;;;;4915034;29;20032;-74
2022/06/05 19:24:28;;;;;;;5.35;2.50;;;22.40;92.80;;;;;;4934604;29;20539;-74
2022/06/05 19:26:54;;;;;;;4.55;2.88;;;22.30;93.00;;;;;;4934784;29;20028;-74
2022/06/05 19:29:26;;;;;;;7.18;2.50;;;22.40;93.40;;;;;;4936425;29;20047;-74
2022/06/05 19:32:27;;;;;;;5.40;2.10;;;22.30;93.60;;;;;;4922912;29;20023;-74
2022/06/05 19:34:55;;;;;;;7.28;2.88;;;22.20;93.60;;;;;;4911707;29;20392;-74
2022/06/05 19:40:23;;;;;;;6.30;2.65;;;22.10;94.30;;;;;;4935178;29;20043;-73
2022/06/05 19:43:03;;;;;;;6.50;2.70;;;22.00;94.60;;;;;;4935243;29;20040;-76
2022/06/05 19:45:37;;;;;;;7.60;2.55;;;22.00;94.90;;;;;;4919627;29;20076;-76
2022/06/05 19:48:17;;;;;;;7.82;2.50;;;21.90;95.10;;;;;;4915510;29;20125;-75
2022/06/05 19:50:46;;;;;;;5.18;2.42;;;21.90;95.30;;;;;;4916795;29;20099;-76
2022/06/05 19:53:40;;;;;;;5.75;2.33;;;21.80;95.20;;;;;;4954710;29;20031;-75
2022/06/05 19:56:12;;;;;;;5.60;2.80;;;21.90;95.50;;;;;;4929763;29;20495;-75
2022/06/05 19:58:45;;;;;;;;;;;21.80;95.60;;;;;;4934547;29;20036;-75
2022/06/05 20:01:37;;;;;;;8.43;3.03;;;21.80;95.90;;;;;;4934911;29;20355;-75
2022/06/05 20:04:35;;;;;;;7.80;2.47;;;21.80;96.50;;;;;;4934172;29;20040;-74
2022/06/05 20:07:12;;;;;;;7.80;2.80;;;21.70;96.60;;;;;;4935078;29;20034;-74
2022/06/05 20:09:47;;;;;;;5.22;2.70;;;21.60;96.60;;;;;;4935110;29;20024;-75
2022/06/05 20:12:19;;;;;;;7.50;2.63;;;21.60;96.80;;;;;;4933932;29;20079;-75
2022/06/05 20:15:00;;;;;;;6.38;2.75;;;21.50;97.10;;;;;;4934772;29;20122;-76
2022/06/05 20:17:31;;;;;;;5.95;2.60;;;21.50;97.00;;;;;;4934690;29;20032;-75
2022/06/05 20:20:09;;;;;;;9.98;2.40;;;21.40;97.60;;;;;;4917348;29;21740;-77
2022/06/05 20:22:44;;;;;;;12.10;3.10;;;21.40;97.70;;;;;;4941791;29;20487;-75
2022/06/05 20:25:42;;;;;;;5.68;2.75;;;21.30;98.10;;;;;;4935136;29;20082;-75
2022/06/05 20:28:16;;;;;;;4.68;2.50;;;21.30;97.60;;;;;;4934805;29;20056;-75
2022/06/05 20:31:15;;;;;;;3.65;2.40;;;21.20;98.50;;;;;;4934837;29;20066;-75
2022/06/05 20:34:01;;;;;;;6.78;2.70;;;21.20;98.80;;;;;;4932680;29;20027;-75
2022/06/05 20:36:28;;;;;;;8.60;3.20;;;21.10;99.30;;;;;;4916130;29;20075;-75
2022/06/05 20:38:58;;;;;;;4.40;2.70;;;21.00;99.70;;;;;;4931818;29;20035;-75
2022/06/05 20:41:40;;;;;;;6.70;2.85;;;21.00;99.90;;;;;;4935366;29;20019;-75
2022/06/05 20:44:14;;;;;;;8.30;3.20;;;20.60;99.90;;;;;;4938506;29;20038;-75
2022/06/05 20:46:55;;;;;;;5.03;3.05;;;20.60;99.90;;;;;;4927550;29;20391;-75
2022/06/05 20:49:33;;;;;;;7.78;3.13;;;20.40;99.90;;;;;;4925893;29;20456;-76
2022/06/05 20:52:00;;;;;;;6.07;2.78;;;20.30;99.90;;;;;;4945854;29;20031;-75
2022/06/05 20:54:26;;;;;;;10.05;3.42;;;20.20;99.90;;;;;;4930680;29;20096;-75
2022/06/05 20:56:55;;;;;;;4.43;2.80;;;20.20;99.90;;;;;;4936400;29;20030;-75
2022/06/05 20:59:21;;;;;;;6.35;3.00;;;20.20;99.90;;;;;;4938010;29;20050;-75
2022/06/05 21:01:52;;;;;;;6.93;3.05;;;20.10;99.90;;;;;;4937483;29;20019;-75
2022/06/05 21:07:22;;;;;;;7.95;2.92;;;20.10;99.90;;;;;;4879621;29;20426;-75
2022/06/05 21:09:57;;;;;;;10.63;3.25;;;20.10;99.90;;;;;;4871828;29;20033;-75
2022/06/05 21:16:55;;;;;;;5.75;2.92;;;19.90;99.90;;;;;;4860261;29;20072;-75
2022/06/05 21:18:18;;;;;;;6.82;2.65;;;19.70;99.90;;;;;;4866308;29;20124;-75
2022/06/05 21:20:46;;;;;;;6.45;3.15;;;19.70;99.90;;;;;;4878310;29;20037;-75
2022/06/05 21:23:13;;;;;;;7.07;3.53;;;19.70;99.90;;;;;;4878744;29;20037;-75
2022/06/05 21:25:48;;;;;;;9.45;3.05;;;19.70;99.90;;;;;;4890859;29;20040;-75
2022/06/05 21:28:16;;;;;;;5.47;3.08;;;19.70;99.90;;;;;;4861527;29;20187;-75
2022/06/05 21:30:47;;;;;;;5.43;2.85;;;19.70;99.90;;;;;;4859725;29;20132;-75
2022/06/05 21:33:13;;;;;;;6.93;2.80;;;19.70;99.90;;;;;;4860257;29;20029;-75
2022/06/05 21:35:47;;;;;;;7.90;3.35;;;19.70;99.90;;;;;;4860324;29;20577;-75
2022/06/05 21:38:50;;;;;;;7.40;3.50;;;19.70;99.90;;;;;;4860128;29;20537;-75
2022/06/05 21:44:09;;;;;;;18.33;3.63;;;19.60;99.90;;;;;;4899447;29;20043;-75
2022/06/05 21:46:38;;;;;;;5.32;2.92;;;19.60;99.90;;;;;;4918182;29;20392;-75
2022/06/05 21:49:04;;;;;;;5.47;3.25;;;19.60;99.90;;;;;;4917851;29;20040;-75
2022/06/05 21:51:33;;;;;;;6.75;2.88;;;19.60;99.90;;;;;;4918123;29;20021;-75
2022/06/05 21:53:59;;;;;;;7.75;4.38;;;19.60;99.90;;;;;;4917940;29;20080;-75
2022/06/05 21:56:33;;;;;;;5.07;2.78;;;19.60;99.90;;;;;;4917855;29;20040;-75
2022/06/05 21:58:59;;;;;;;11.40;4.18;;;19.60;99.90;;;;;;4917655;29;20042;-75
2022/06/05 22:01:25;;;;;;;8.63;3.60;;;19.50;99.90;;;;;;4918166;29;20016;-75
2022/06/05 22:03:52;;;;;;;8.10;4.13;;;19.30;99.90;;;;;;4930849;29;20028;-75
2022/06/05 22:06:30;;;;;;;5.70;4.07;;;19.30;99.90;;;;;;4937053;29;20099;-75
2022/06/05 22:08:59;;;;;;;8.70;3.80;;;19.30;99.90;;;;;;4935662;29;20396;-75
2022/06/05 22:11:34;;;;;;;9.13;4.00;;;19.10;99.90;;;;;;4936755;29;20030;-75
2022/06/05 22:14:12;;;;;;;8.40;3.92;;;19.00;99.90;;;;;;4935362;29;20039;-75
2022/06/05 22:16:39;;;;;;;7.03;3.55;;;19.10;99.90;;;;;;4936794;29;20030;-75
2022/06/05 22:19:06;;;;;;;8.93;3.65;;;19.20;99.90;;;;;;4936746;29;20170;-75
2022/06/05 22:21:34;;;;;;;8.80;3.17;;;19.00;99.90;;;;;;4936600;29;20024;-75
2022/06/05 22:24:00;;;;;;;7.05;3.58;;;19.10;99.90;;;;;;4936568;29;20067;-75
2022/06/05 22:26:26;;;;;;;6.15;3.20;;;19.20;99.90;;;;;;4936437;29;20031;-75
2022/06/05 22:28:52;;;;;;;6.65;3.20;;;19.20;99.90;;;;;;4923383;29;20056;-75
2022/06/05 22:31:18;;;;;;;7.18;3.30;;;19.10;99.90;;;;;;4917751;29;20025;-75
2022/06/05 22:33:45;;;;;;;6.80;3.28;;;19.10;99.90;;;;;;4917283;29;20062;-75
2022/06/05 22:36:11;;;;;;;6.65;3.60;;;19.10;99.90;;;;;;4917539;29;20573;-74
2022/06/05 22:38:37;;;;;;;7.25;2.97;;;19.10;99.90;;;;;;4929578;29;20020;-75
2022/06/05 22:41:03;;;;;;;9.32;3.60;;;19.00;99.90;;;;;;4922122;29;20082;-75
2022/06/05 22:43:29;;;;;;;10.70;3.80;;;18.90;99.90;;;;;;4936003;29;20034;-75
2022/06/05 22:45:55;;;;;;;9.50;3.65;;;18.90;99.90;;;;;;4936082;29;20028;-75
2022/06/05 22:48:21;;;;;;;5.95;3.08;;;18.70;99.90;;;;;;4935221;29;20352;-75
2022/06/05 22:50:53;;;;;;;9.90;3.97;;;18.70;99.90;;;;;;4936087;29;20024;-75
2022/06/05 22:53:18;;;;;;;6.97;3.80;;;18.70;99.90;;;;;;4930272;29;20024;-75
2022/06/05 22:55:44;;;;;;;6.05;3.47;;;18.50;99.90;;;;;;4916853;29;20039;-75
2022/06/05 22:58:10;;;;;;;9.73;3.42;;;18.50;99.90;;;;;;4916648;29;20383;-74
2022/06/05 23:00:37;;;;;;;5.88;3.40;;;18.40;99.90;;;;;;4916875;29;20532;-75
2022/06/05 23:03:06;;;;;;;7.43;3.33;;;18.40;99.90;;;;;;4926679;29;20496;-75
2022/06/05 23:05:31;;;;;;;6.35;3.42;;;18.40;99.90;;;;;;4935243;29;20039;-75
2022/06/05 23:07:57;;;;;;;9.95;3.40;;;18.40;99.90;;;;;;4935792;29;20514;-75
2022/06/05 23:10:23;;;;;;;5.32;3.22;;;18.40;99.90;;;;;;4935244;29;20036;-75
2022/06/05 23:12:48;;;;;;;6.90;3.50;;;18.50;99.90;;;;;;4935830;29;20083;-75
2022/06/05 23:15:14;;;;;;;7.82;3.17;;;18.50;99.90;;;;;;4936037;29;20083;-74
2022/06/05 23:17:40;;;;;;;9.45;3.65;;;18.40;99.90;;;;;;4935773;29;20042;-75
2022/06/05 23:20:07;;;;;;;4.75;3.38;;;18.20;99.90;;;;;;4933984;29;20106;-74
2022/06/05 23:22:32;;;;;;;4.85;3.17;;;18.20;99.90;;;;;;4915409;29;20024;-75
2022/06/05 23:24:58;;;;;;;7.80;3.25;;;18.20;99.90;;;;;;4916070;29;20107;-75
2022/06/05 23:27:25;;;;;;;7.07;3.33;;;18.30;99.90;;;;;;4916912;29;20070;-74
2022/06/05 23:29:51;;;;;;;5.63;2.95;;;18.40;99.90;;;;;;4918199;29;20056;-75
2022/06/05 23:32:16;;;;;;;7.40;3.25;;;18.30;99.90;;;;;;4935388;29;20468;-75
2022/06/05 23:34:44;;;;;;;5.15;3.28;;;18.30;99.90;;;;;;4935727;29;20035;-75
2022/06/05 23:37:12;;;;;;;5.50;3.03;;;18.30;99.90;;;;;;4935397;29;20027;-74
2022/06/05 23:39:39;;;;;;;7.40;3.38;;;18.10;99.90;;;;;;4935152;29;20481;-75
2022/06/05 23:42:05;;;;;;;7.00;3.47;;;18.20;99.90;;;;;;4935360;29;20016;-75
2022/06/05 23:44:31;;;;;;;6.78;2.55;;;18.20;99.90;;;;;;4933399;29;20056;-74
2022/06/05 23:46:57;;;;;;;8.90;3.45;;;18.20;99.90;;;;;;4916045;29;20043;-74
2022/06/05 23:49:26;;;;;;;5.40;2.90;;;18.20;99.90;;;;;;4935372;29;20031;-75
2022/06/05 23:51:52;;;;;;;6.60;2.90;;;18.20;99.90;;;;;;4934783;29;20027;-75
2022/06/05 23:54:18;;;;;;;8.13;3.28;;;18.20;99.90;;;;;;4952979;29;20073;-75
2022/06/05 23:59:28;;;;;;;8.65;3.53;;;18.10;99.90;;;;;;4935683;29;20555;-75
